Alta Floresta, Brazil
Current Conditions -  °F | °C
As of 11:00 AM on Friday 24 Oct 2014 (Local Time) from SBAT Reporting Station
Few Clouds Few Clouds  
Wind Chill: 33°   Ceiling: Unl
Heat Index: 38°   Visibility: 6mi
Dew Point: 23°   Wind: 1mph
Humidity: 55%   Direction: 80°E
Pressure: 29.94"   Gusts: NA
Location:  9.9°S, 55.91°W
Report Text: SBAT 241400Z 08001KT 9999 FEW030 33/23 Q1014
Loading
Personal Weather Stations






























Interactive Weather Map
Tropical Storm Tracking
New forecast layout! Learn more

10-Day Weather Forecast

Advertisements
Track Severe Weather on mobile